sensor_id;sensor_type;location;lat;lon;timestamp;P1;durP1;ratioP1;P2;durP2;ratioP2
20705;SDS011;10514;49.468;11.044;2023-10-09T00:02:20;9.45;;;5.78;;
20705;SDS011;10514;49.468;11.044;2023-10-09T00:04:45;9.23;;;5.70;;
20705;SDS011;10514;49.468;11.044;2023-10-09T00:07:11;11.68;;;5.75;;
20705;SDS011;10514;49.468;11.044;2023-10-09T00:09:38;12.48;;;6.03;;
20705;SDS011;10514;49.468;11.044;2023-10-09T00:12:16;10.85;;;6.22;;
20705;SDS011;10514;49.468;11.044;2023-10-09T00:14:47;12.00;;;6.30;;
20705;SDS011;10514;49.468;11.044;2023-10-09T00:17:15;9.48;;;5.60;;
20705;SDS011;10514;49.468;11.044;2023-10-09T00:19:41;11.95;;;6.05;;
20705;SDS011;10514;49.468;11.044;2023-10-09T00:22:08;11.00;;;5.63;;
20705;SDS011;10514;49.468;11.044;2023-10-09T00:24:49;8.68;;;5.30;;
20705;SDS011;10514;49.468;11.044;2023-10-09T00:27:16;10.27;;;5.28;;
20705;SDS011;10514;49.468;11.044;2023-10-09T00:29:44;11.20;;;5.88;;
20705;SDS011;10514;49.468;11.044;2023-10-09T00:32:11;9.82;;;5.60;;
20705;SDS011;10514;49.468;11.044;2023-10-09T00:34:57;8.93;;;5.82;;
20705;SDS011;10514;49.468;11.044;2023-10-09T00:37:24;9.02;;;5.50;;
20705;SDS011;10514;49.468;11.044;2023-10-09T00:39:51;8.90;;;5.68;;
20705;SDS011;10514;49.468;11.044;2023-10-09T00:42:24;11.85;;;5.82;;
20705;SDS011;10514;49.468;11.044;2023-10-09T00:45:01;9.52;;;5.68;;
20705;SDS011;10514;49.468;11.044;2023-10-09T00:47:30;11.02;;;5.65;;
20705;SDS011;10514;49.468;11.044;2023-10-09T00:50:07;8.98;;;5.30;;
20705;SDS011;10514;49.468;11.044;2023-10-09T00:52:46;13.02;;;6.20;;
20705;SDS011;10514;49.468;11.044;2023-10-09T00:55:19;10.32;;;5.60;;
20705;SDS011;10514;49.468;11.044;2023-10-09T00:58:15;10.50;;;5.95;;
20705;SDS011;10514;49.468;11.044;2023-10-09T01:00:48;8.80;;;4.93;;
20705;SDS011;10514;49.468;11.044;2023-10-09T01:03:18;9.05;;;5.35;;
20705;SDS011;10514;49.468;11.044;2023-10-09T01:05:46;8.25;;;5.60;;
20705;SDS011;10514;49.468;11.044;2023-10-09T01:08:38;8.98;;;6.05;;
20705;SDS011;10514;49.468;11.044;2023-10-09T01:11:07;10.98;;;5.97;;
20705;SDS011;10514;49.468;11.044;2023-10-09T01:13:55;9.38;;;5.90;;
20705;SDS011;10514;49.468;11.044;2023-10-09T01:16:36;9.43;;;5.95;;
20705;SDS011;10514;49.468;11.044;2023-10-09T01:19:05;14.85;;;6.85;;
20705;SDS011;10514;49.468;11.044;2023-10-09T01:21:37;13.20;;;6.50;;
20705;SDS011;10514;49.468;11.044;2023-10-09T01:24:04;10.77;;;6.45;;
20705;SDS011;10514;49.468;11.044;2023-10-09T01:26:37;9.25;;;5.50;;
20705;SDS011;10514;49.468;11.044;2023-10-09T01:29:11;11.48;;;6.10;;
20705;SDS011;10514;49.468;11.044;2023-10-09T01:31:53;11.68;;;6.35;;
20705;SDS011;10514;49.468;11.044;2023-10-09T01:37:06;12.25;;;6.43;;
20705;SDS011;10514;49.468;11.044;2023-10-09T01:39:54;9.50;;;6.20;;
20705;SDS011;10514;49.468;11.044;2023-10-09T01:42:40;9.80;;;6.22;;
20705;SDS011;10514;49.468;11.044;2023-10-09T01:45:11;12.77;;;6.97;;
20705;SDS011;10514;49.468;11.044;2023-10-09T01:47:37;11.35;;;6.65;;
20705;SDS011;10514;49.468;11.044;2023-10-09T01:50:03;10.98;;;6.25;;
20705;SDS011;10514;49.468;11.044;2023-10-09T01:52:45;10.35;;;7.18;;
20705;SDS011;10514;49.468;11.044;2023-10-09T01:55:10;12.32;;;6.20;;
20705;SDS011;10514;49.468;11.044;2023-10-09T01:57:40;13.60;;;6.80;;
20705;SDS011;10514;49.468;11.044;2023-10-09T02:00:09;11.90;;;7.45;;
20705;SDS011;10514;49.468;11.044;2023-10-09T02:02:41;10.43;;;6.97;;
20705;SDS011;10514;49.468;11.044;2023-10-09T02:05:10;15.32;;;7.97;;
20705;SDS011;10514;49.468;11.044;2023-10-09T02:07:55;12.80;;;7.43;;
20705;SDS011;10514;49.468;11.044;2023-10-09T02:10:23;13.32;;;7.35;;
20705;SDS011;10514;49.468;11.044;2023-10-09T02:13:02;13.27;;;7.45;;
20705;SDS011;10514;49.468;11.044;2023-10-09T02:15:31;12.25;;;7.32;;
20705;SDS011;10514;49.468;11.044;2023-10-09T02:18:11;12.30;;;7.72;;
20705;SDS011;10514;49.468;11.044;2023-10-09T02:20:44;11.68;;;6.60;;
20705;SDS011;10514;49.468;11.044;2023-10-09T02:23:20;13.10;;;7.22;;
20705;SDS011;10514;49.468;11.044;2023-10-09T02:25:49;12.73;;;7.03;;
20705;SDS011;10514;49.468;11.044;2023-10-09T02:28:18;13.98;;;7.00;;
20705;SDS011;10514;49.468;11.044;2023-10-09T02:30:47;12.65;;;7.00;;
20705;SDS011;10514;49.468;11.044;2023-10-09T02:33:13;12.02;;;7.22;;
20705;SDS011;10514;49.468;11.044;2023-10-09T02:35:43;11.98;;;6.32;;
20705;SDS011;10514;49.468;11.044;2023-10-09T02:38:09;13.52;;;7.68;;
20705;SDS011;10514;49.468;11.044;2023-10-09T02:40:40;10.05;;;6.47;;
20705;SDS011;10514;49.468;11.044;2023-10-09T02:43:27;13.93;;;6.97;;
20705;SDS011;10514;49.468;11.044;2023-10-09T02:46:09;14.13;;;7.45;;
20705;SDS011;10514;49.468;11.044;2023-10-09T02:48:54;12.07;;;6.93;;
20705;SDS011;10514;49.468;11.044;2023-10-09T02:51:24;13.73;;;6.97;;
20705;SDS011;10514;49.468;11.044;2023-10-09T02:53:53;9.77;;;6.23;;
20705;SDS011;10514;49.468;11.044;2023-10-09T02:59:22;11.23;;;6.35;;
20705;SDS011;10514;49.468;11.044;2023-10-09T03:01:48;14.10;;;8.00;;
20705;SDS011;10514;49.468;11.044;2023-10-09T03:04:17;11.02;;;6.18;;
20705;SDS011;10514;49.468;11.044;2023-10-09T03:06:44;12.20;;;6.60;;
20705;SDS011;10514;49.468;11.044;2023-10-09T03:09:16;11.82;;;6.35;;
20705;SDS011;10514;49.468;11.044;2023-10-09T03:11:43;10.23;;;5.90;;
20705;SDS011;10514;49.468;11.044;2023-10-09T03:14:11;10.60;;;5.80;;
20705;SDS011;10514;49.468;11.044;2023-10-09T03:16:37;12.00;;;6.47;;
20705;SDS011;10514;49.468;11.044;2023-10-09T03:19:03;10.77;;;6.20;;
20705;SDS011;10514;49.468;11.044;2023-10-09T03:21:28;12.55;;;7.10;;
20705;SDS011;10514;49.468;11.044;2023-10-09T03:23:54;12.98;;;6.80;;
20705;SDS011;10514;49.468;11.044;2023-10-09T03:26:21;12.50;;;7.40;;
20705;SDS011;10514;49.468;11.044;2023-10-09T03:28:50;12.63;;;6.90;;
20705;SDS011;10514;49.468;11.044;2023-10-09T03:31:17;13.50;;;7.05;;
20705;SDS011;10514;49.468;11.044;2023-10-09T03:33:43;11.95;;;6.70;;
20705;SDS011;10514;49.468;11.044;2023-10-09T03:36:09;12.60;;;6.80;;
20705;SDS011;10514;49.468;11.044;2023-10-09T03:38:35;12.60;;;7.00;;
20705;SDS011;10514;49.468;11.044;2023-10-09T03:41:04;13.40;;;6.60;;
20705;SDS011;10514;49.468;11.044;2023-10-09T03:43:34;11.98;;;7.07;;
20705;SDS011;10514;49.468;11.044;2023-10-09T03:46:10;12.70;;;6.90;;
20705;SDS011;10514;49.468;11.044;2023-10-09T03:51:13;13.50;;;6.13;;
20705;SDS011;10514;49.468;11.044;2023-10-09T03:53:46;11.13;;;6.30;;
20705;SDS011;10514;49.468;11.044;2023-10-09T03:56:12;13.07;;;6.70;;
20705;SDS011;10514;49.468;11.044;2023-10-09T03:58:41;10.63;;;5.55;;
20705;SDS011;10514;49.468;11.044;2023-10-09T04:01:08;11.75;;;6.63;;
20705;SDS011;10514;49.468;11.044;2023-10-09T04:03:50;10.32;;;5.95;;
20705;SDS011;10514;49.468;11.044;2023-10-09T04:06:26;11.07;;;6.15;;
20705;SDS011;10514;49.468;11.044;2023-10-09T04:09:02;10.30;;;6.72;;
20705;SDS011;10514;49.468;11.044;2023-10-09T04:11:47;12.63;;;7.03;;
20705;SDS011;10514;49.468;11.044;2023-10-09T04:14:37;10.15;;;6.00;;
20705;SDS011;10514;49.468;11.044;2023-10-09T04:17:19;9.25;;;6.32;;
20705;SDS011;10514;49.468;11.044;2023-10-09T04:19:47;10.27;;;5.90;;
20705;SDS011;10514;49.468;11.044;2023-10-09T04:22:13;10.40;;;5.97;;
20705;SDS011;10514;49.468;11.044;2023-10-09T04:24:52;10.50;;;5.75;;
20705;SDS011;10514;49.468;11.044;2023-10-09T04:27:18;11.15;;;6.50;;
20705;SDS011;10514;49.468;11.044;2023-10-09T04:29:51;10.70;;;6.03;;
20705;SDS011;10514;49.468;11.044;2023-10-09T04:32:19;11.10;;;5.90;;
20705;SDS011;10514;49.468;11.044;2023-10-09T04:34:49;11.02;;;5.93;;
20705;SDS011;10514;49.468;11.044;2023-10-09T04:37:21;10.48;;;5.95;;
20705;SDS011;10514;49.468;11.044;2023-10-09T04:40:03;10.93;;;5.63;;
20705;SDS011;10514;49.468;11.044;2023-10-09T04:42:58;9.40;;;5.75;;
20705;SDS011;10514;49.468;11.044;2023-10-09T04:45:24;10.50;;;5.88;;
20705;SDS011;10514;49.468;11.044;2023-10-09T04:48:08;10.07;;;5.82;;
20705;SDS011;10514;49.468;11.044;2023-10-09T04:50:34;10.38;;;5.55;;
20705;SDS011;10514;49.468;11.044;2023-10-09T04:53:01;12.07;;;6.43;;
20705;SDS011;10514;49.468;11.044;2023-10-09T04:55:39;13.60;;;6.88;;
20705;SDS011;10514;49.468;11.044;2023-10-09T04:58:09;11.38;;;6.60;;
20705;SDS011;10514;49.468;11.044;2023-10-09T05:00:49;14.50;;;6.70;;
20705;SDS011;10514;49.468;11.044;2023-10-09T05:03:27;11.35;;;6.55;;
20705;SDS011;10514;49.468;11.044;2023-10-09T05:05:54;11.23;;;6.47;;
20705;SDS011;10514;49.468;11.044;2023-10-09T05:08:45;12.25;;;6.53;;
20705;SDS011;10514;49.468;11.044;2023-10-09T05:11:11;10.20;;;6.28;;
20705;SDS011;10514;49.468;11.044;2023-10-09T05:13:55;10.25;;;5.53;;
20705;SDS011;10514;49.468;11.044;2023-10-09T05:16:36;11.13;;;5.70;;
20705;SDS011;10514;49.468;11.044;2023-10-09T05:19:03;13.25;;;6.25;;
20705;SDS011;10514;49.468;11.044;2023-10-09T05:21:35;13.80;;;6.75;;
20705;SDS011;10514;49.468;11.044;2023-10-09T05:24:09;13.50;;;6.63;;
20705;SDS011;10514;49.468;11.044;2023-10-09T05:26:39;11.25;;;6.55;;
20705;SDS011;10514;49.468;11.044;2023-10-09T05:29:12;12.82;;;6.80;;
20705;SDS011;10514;49.468;11.044;2023-10-09T05:31:47;13.80;;;6.78;;
20705;SDS011;10514;49.468;11.044;2023-10-09T05:34:32;11.18;;;6.50;;
20705;SDS011;10514;49.468;11.044;2023-10-09T05:37:05;12.82;;;6.65;;
20705;SDS011;10514;49.468;11.044;2023-10-09T05:39:48;11.75;;;6.70;;
20705;SDS011;10514;49.468;11.044;2023-10-09T05:42:35;11.85;;;6.40;;
20705;SDS011;10514;49.468;11.044;2023-10-09T05:45:10;11.27;;;6.00;;
20705;SDS011;10514;49.468;11.044;2023-10-09T05:50:28;10.27;;;6.32;;
20705;SDS011;10514;49.468;11.044;2023-10-09T05:52:57;13.27;;;6.97;;
20705;SDS011;10514;49.468;11.044;2023-10-09T05:55:29;10.73;;;6.03;;
20705;SDS011;10514;49.468;11.044;2023-10-09T05:58:14;10.45;;;5.85;;
20705;SDS011;10514;49.468;11.044;2023-10-09T06:00:58;13.48;;;6.88;;
20705;SDS011;10514;49.468;11.044;2023-10-09T06:03:42;14.73;;;6.93;;
20705;SDS011;10514;49.468;11.044;2023-10-09T06:06:14;11.68;;;6.32;;
20705;SDS011;10514;49.468;11.044;2023-10-09T06:09:02;11.45;;;6.95;;
20705;SDS011;10514;49.468;11.044;2023-10-09T06:11:43;13.05;;;6.45;;
20705;SDS011;10514;49.468;11.044;2023-10-09T06:14:16;12.20;;;7.15;;
20705;SDS011;10514;49.468;11.044;2023-10-09T06:17:11;14.00;;;7.03;;
20705;SDS011;10514;49.468;11.044;2023-10-09T06:19:39;14.10;;;7.35;;
20705;SDS011;10514;49.468;11.044;2023-10-09T06:22:08;12.38;;;6.25;;
20705;SDS011;10514;49.468;11.044;2023-10-09T06:24:54;13.57;;;7.90;;
20705;SDS011;10514;49.468;11.044;2023-10-09T06:27:22;14.57;;;6.88;;
20705;SDS011;10514;49.468;11.044;2023-10-09T06:30:11;12.30;;;6.93;;
20705;SDS011;10514;49.468;11.044;2023-10-09T06:32:37;12.13;;;7.60;;
20705;SDS011;10514;49.468;11.044;2023-10-09T06:35:03;15.45;;;7.10;;
20705;SDS011;10514;49.468;11.044;2023-10-09T06:37:50;14.38;;;6.82;;
20705;SDS011;10514;49.468;11.044;2023-10-09T06:43:17;15.70;;;6.88;;
20705;SDS011;10514;49.468;11.044;2023-10-09T06:45:57;15.20;;;7.18;;
20705;SDS011;10514;49.468;11.044;2023-10-09T06:48:42;11.90;;;6.13;;
20705;SDS011;10514;49.468;11.044;2023-10-09T06:51:11;14.20;;;7.05;;
20705;SDS011;10514;49.468;11.044;2023-10-09T06:53:38;14.80;;;6.25;;
20705;SDS011;10514;49.468;11.044;2023-10-09T06:56:25;13.13;;;7.28;;
20705;SDS011;10514;49.468;11.044;2023-10-09T06:58:58;14.75;;;6.57;;
20705;SDS011;10514;49.468;11.044;2023-10-09T07:01:27;12.70;;;5.45;;
20705;SDS011;10514;49.468;11.044;2023-10-09T07:03:53;13.48;;;6.68;;
20705;SDS011;10514;49.468;11.044;2023-10-09T07:06:19;11.60;;;5.60;;
20705;SDS011;10514;49.468;11.044;2023-10-09T07:08:49;12.93;;;6.00;;
20705;SDS011;10514;49.468;11.044;2023-10-09T07:11:36;14.52;;;5.65;;
20705;SDS011;10514;49.468;11.044;2023-10-09T07:14:05;11.27;;;5.13;;
20705;SDS011;10514;49.468;11.044;2023-10-09T07:16:34;13.02;;;5.55;;
20705;SDS011;10514;49.468;11.044;2023-10-09T07:19:23;13.25;;;5.63;;
20705;SDS011;10514;49.468;11.044;2023-10-09T07:22:10;14.57;;;5.40;;
20705;SDS011;10514;49.468;11.044;2023-10-09T07:24:49;11.25;;;4.90;;
20705;SDS011;10514;49.468;11.044;2023-10-09T07:32:56;11.80;;;4.50;;
20705;SDS011;10514;49.468;11.044;2023-10-09T07:35:36;13.27;;;4.40;;
20705;SDS011;10514;49.468;11.044;2023-10-09T07:38:34;13.60;;;5.20;;
20705;SDS011;10514;49.468;11.044;2023-10-09T07:41:00;12.55;;;4.30;;
20705;SDS011;10514;49.468;11.044;2023-10-09T07:43:30;15.50;;;4.15;;
20705;SDS011;10514;49.468;11.044;2023-10-09T07:46:17;14.95;;;5.60;;
20705;SDS011;10514;49.468;11.044;2023-10-09T07:48:58;12.60;;;4.22;;
20705;SDS011;10514;49.468;11.044;2023-10-09T07:51:33;14.02;;;4.30;;
20705;SDS011;10514;49.468;11.044;2023-10-09T07:54:03;13.10;;;5.05;;
20705;SDS011;10514;49.468;11.044;2023-10-09T07:56:38;10.93;;;4.35;;
20705;SDS011;10514;49.468;11.044;2023-10-09T07:59:10;11.88;;;4.53;;
20705;SDS011;10514;49.468;11.044;2023-10-09T08:01:40;19.88;;;5.15;;
20705;SDS011;10514;49.468;11.044;2023-10-09T08:04:24;11.15;;;3.78;;
20705;SDS011;10514;49.468;11.044;2023-10-09T08:07:09;11.65;;;4.20;;
20705;SDS011;10514;49.468;11.044;2023-10-09T08:09:50;12.48;;;4.25;;
20705;SDS011;10514;49.468;11.044;2023-10-09T08:12:37;12.32;;;4.15;;
20705;SDS011;10514;49.468;11.044;2023-10-09T08:15:12;15.10;;;4.53;;
20705;SDS011;10514;49.468;11.044;2023-10-09T08:20:52;14.68;;;3.95;;
20705;SDS011;10514;49.468;11.044;2023-10-09T08:23:50;15.32;;;3.90;;
20705;SDS011;10514;49.468;11.044;2023-10-09T08:26:17;14.00;;;3.77;;
20705;SDS011;10514;49.468;11.044;2023-10-09T08:29:11;14.32;;;3.78;;
20705;SDS011;10514;49.468;11.044;2023-10-09T08:31:44;12.75;;;4.00;;
20705;SDS011;10514;49.468;11.044;2023-10-09T08:34:10;13.13;;;3.58;;
20705;SDS011;10514;49.468;11.044;2023-10-09T08:36:51;9.75;;;3.50;;
20705;SDS011;10514;49.468;11.044;2023-10-09T08:39:21;12.60;;;4.00;;
20705;SDS011;10514;49.468;11.044;2023-10-09T08:41:55;12.98;;;4.10;;
20705;SDS011;10514;49.468;11.044;2023-10-09T08:44:26;9.32;;;3.33;;
20705;SDS011;10514;49.468;11.044;2023-10-09T08:46:54;14.80;;;3.78;;
20705;SDS011;10514;49.468;11.044;2023-10-09T08:49:24;14.48;;;3.88;;
20705;SDS011;10514;49.468;11.044;2023-10-09T08:51:51;13.40;;;4.15;;
20705;SDS011;10514;49.468;11.044;2023-10-09T08:54:20;14.52;;;4.00;;
20705;SDS011;10514;49.468;11.044;2023-10-09T08:56:45;16.02;;;4.35;;
20705;SDS011;10514;49.468;11.044;2023-10-09T08:59:18;15.52;;;4.45;;
20705;SDS011;10514;49.468;11.044;2023-10-09T09:01:45;13.20;;;4.22;;
20705;SDS011;10514;49.468;11.044;2023-10-09T09:07:04;13.98;;;3.72;;
20705;SDS011;10514;49.468;11.044;2023-10-09T09:09:59;14.38;;;4.40;;
20705;SDS011;10514;49.468;11.044;2023-10-09T09:12:42;10.82;;;3.75;;
20705;SDS011;10514;49.468;11.044;2023-10-09T09:15:15;12.57;;;3.83;;
20705;SDS011;10514;49.468;11.044;2023-10-09T09:17:45;12.38;;;3.85;;
20705;SDS011;10514;49.468;11.044;2023-10-09T09:22:54;14.75;;;4.13;;
20705;SDS011;10514;49.468;11.044;2023-10-09T09:25:24;11.73;;;3.22;;
20705;SDS011;10514;49.468;11.044;2023-10-09T09:28:11;8.43;;;3.10;;
20705;SDS011;10514;49.468;11.044;2023-10-09T09:31:06;10.70;;;3.30;;
20705;SDS011;10514;49.468;11.044;2023-10-09T09:33:38;11.52;;;4.05;;
20705;SDS011;10514;49.468;11.044;2023-10-09T09:36:05;11.93;;;4.25;;
20705;SDS011;10514;49.468;11.044;2023-10-09T09:38:33;11.25;;;3.90;;
20705;SDS011;10514;49.468;11.044;2023-10-09T09:41:07;16.48;;;3.75;;
20705;SDS011;10514;49.468;11.044;2023-10-09T09:43:42;10.93;;;3.63;;
20705;SDS011;10514;49.468;11.044;2023-10-09T09:46:18;11.00;;;3.67;;
20705;SDS011;10514;49.468;11.044;2023-10-09T09:48:52;8.85;;;3.42;;
20705;SDS011;10514;49.468;11.044;2023-10-09T09:51:25;13.43;;;4.15;;
20705;SDS011;10514;49.468;11.044;2023-10-09T09:53:54;11.40;;;3.10;;
20705;SDS011;10514;49.468;11.044;2023-10-09T09:56:20;12.73;;;3.58;;
20705;SDS011;10514;49.468;11.044;2023-10-09T09:58:49;10.05;;;3.97;;
20705;SDS011;10514;49.468;11.044;2023-10-09T10:01:18;11.23;;;3.75;;
20705;SDS011;10514;49.468;11.044;2023-10-09T10:03:54;12.60;;;3.60;;
20705;SDS011;10514;49.468;11.044;2023-10-09T10:06:24;11.73;;;3.72;;
20705;SDS011;10514;49.468;11.044;2023-10-09T10:08:53;9.15;;;3.50;;
20705;SDS011;10514;49.468;11.044;2023-10-09T10:14:09;10.53;;;4.13;;
20705;SDS011;10514;49.468;11.044;2023-10-09T10:22:25;12.68;;;4.25;;
20705;SDS011;10514;49.468;11.044;2023-10-09T10:25:02;9.18;;;3.45;;
20705;SDS011;10514;49.468;11.044;2023-10-09T10:27:34;10.63;;;3.50;;
20705;SDS011;10514;49.468;11.044;2023-10-09T10:32:54;9.90;;;3.60;;
20705;SDS011;10514;49.468;11.044;2023-10-09T10:35:34;11.80;;;3.70;;
20705;SDS011;10514;49.468;11.044;2023-10-09T10:38:24;8.52;;;3.35;;
20705;SDS011;10514;49.468;11.044;2023-10-09T10:43:37;10.20;;;3.78;;
20705;SDS011;10514;49.468;11.044;2023-10-09T10:46:26;10.88;;;3.47;;
20705;SDS011;10514;49.468;11.044;2023-10-09T10:48:55;7.22;;;2.78;;
20705;SDS011;10514;49.468;11.044;2023-10-09T10:51:25;9.02;;;3.35;;
20705;SDS011;10514;49.468;11.044;2023-10-09T10:54:00;14.60;;;3.70;;
20705;SDS011;10514;49.468;11.044;2023-10-09T10:56:46;10.68;;;3.55;;
20705;SDS011;10514;49.468;11.044;2023-10-09T10:59:13;12.43;;;3.50;;
20705;SDS011;10514;49.468;11.044;2023-10-09T11:01:38;17.25;;;4.30;;
20705;SDS011;10514;49.468;11.044;2023-10-09T11:04:39;12.32;;;3.67;;
20705;SDS011;10514;49.468;11.044;2023-10-09T11:07:08;12.23;;;3.88;;
20705;SDS011;10514;49.468;11.044;2023-10-09T11:09:56;10.73;;;3.30;;
20705;SDS011;10514;49.468;11.044;2023-10-09T11:12:28;13.50;;;3.58;;
20705;SDS011;10514;49.468;11.044;2023-10-09T11:15:11;13.32;;;3.67;;
20705;SDS011;10514;49.468;11.044;2023-10-09T11:18:05;13.52;;;3.55;;
20705;SDS011;10514;49.468;11.044;2023-10-09T11:20:48;13.02;;;3.58;;
20705;SDS011;10514;49.468;11.044;2023-10-09T11:23:26;15.25;;;3.83;;
20705;SDS011;10514;49.468;11.044;2023-10-09T11:26:01;13.50;;;3.88;;
20705;SDS011;10514;49.468;11.044;2023-10-09T11:32:04;12.25;;;3.38;;
20705;SDS011;10514;49.468;11.044;2023-10-09T11:34:31;13.52;;;3.65;;
20705;SDS011;10514;49.468;11.044;2023-10-09T11:39:28;13.55;;;3.65;;
20705;SDS011;10514;49.468;11.044;2023-10-09T11:42:01;11.25;;;3.13;;
20705;SDS011;10514;49.468;11.044;2023-10-09T11:44:42;10.65;;;3.30;;
20705;SDS011;10514;49.468;11.044;2023-10-09T11:47:20;13.52;;;3.83;;
20705;SDS011;10514;49.468;11.044;2023-10-09T11:49:52;12.75;;;3.45;;
20705;SDS011;10514;49.468;11.044;2023-10-09T11:52:26;13.40;;;3.38;;
20705;SDS011;10514;49.468;11.044;2023-10-09T11:55:11;14.85;;;4.05;;
20705;SDS011;10514;49.468;11.044;2023-10-09T11:57:41;13.68;;;3.30;;
20705;SDS011;10514;49.468;11.044;2023-10-09T12:00:07;16.17;;;3.85;;
20705;SDS011;10514;49.468;11.044;2023-10-09T12:02:50;15.45;;;3.90;;
20705;SDS011;10514;49.468;11.044;2023-10-09T12:05:17;12.98;;;4.47;;
20705;SDS011;10514;49.468;11.044;2023-10-09T12:07:44;13.35;;;3.45;;
20705;SDS011;10514;49.468;11.044;2023-10-09T12:10:10;14.18;;;3.17;;
20705;SDS011;10514;49.468;11.044;2023-10-09T12:12:38;12.25;;;3.50;;
20705;SDS011;10514;49.468;11.044;2023-10-09T12:15:05;12.90;;;3.75;;
20705;SDS011;10514;49.468;11.044;2023-10-09T12:17:31;13.52;;;3.65;;
20705;SDS011;10514;49.468;11.044;2023-10-09T12:19:57;12.32;;;4.10;;
20705;SDS011;10514;49.468;11.044;2023-10-09T12:22:23;14.85;;;3.58;;
20705;SDS011;10514;49.468;11.044;2023-10-09T12:24:52;10.98;;;3.92;;
20705;SDS011;10514;49.468;11.044;2023-10-09T12:27:18;7.68;;;3.70;;
20705;SDS011;10514;49.468;11.044;2023-10-09T12:29:45;14.35;;;3.60;;
20705;SDS011;10514;49.468;11.044;2023-10-09T12:32:16;11.63;;;3.60;;
20705;SDS011;10514;49.468;11.044;2023-10-09T12:34:44;12.18;;;3.80;;
20705;SDS011;10514;49.468;11.044;2023-10-09T12:37:10;14.90;;;3.95;;
20705;SDS011;10514;49.468;11.044;2023-10-09T12:39:37;16.92;;;4.00;;
20705;SDS011;10514;49.468;11.044;2023-10-09T12:42:05;12.90;;;3.92;;
20705;SDS011;10514;49.468;11.044;2023-10-09T12:44:34;8.20;;;3.13;;
20705;SDS011;10514;49.468;11.044;2023-10-09T12:47:04;12.43;;;3.28;;
20705;SDS011;10514;49.468;11.044;2023-10-09T12:49:34;12.25;;;3.15;;
20705;SDS011;10514;49.468;11.044;2023-10-09T12:51:59;16.35;;;3.30;;
20705;SDS011;10514;49.468;11.044;2023-10-09T12:54:25;11.88;;;3.58;;
20705;SDS011;10514;49.468;11.044;2023-10-09T12:56:54;12.57;;;3.40;;
20705;SDS011;10514;49.468;11.044;2023-10-09T12:59:20;12.77;;;3.70;;
20705;SDS011;10514;49.468;11.044;2023-10-09T13:01:46;12.40;;;3.60;;
20705;SDS011;10514;49.468;11.044;2023-10-09T13:04:17;12.43;;;3.83;;
20705;SDS011;10514;49.468;11.044;2023-10-09T13:06:47;17.42;;;4.28;;
20705;SDS011;10514;49.468;11.044;2023-10-09T13:09:27;13.40;;;3.78;;
20705;SDS011;10514;49.468;11.044;2023-10-09T13:14:34;11.65;;;3.22;;
20705;SDS011;10514;49.468;11.044;2023-10-09T13:17:00;17.63;;;3.70;;
20705;SDS011;10514;49.468;11.044;2023-10-09T13:19:36;16.75;;;3.53;;
20705;SDS011;10514;49.468;11.044;2023-10-09T13:22:06;15.05;;;3.20;;
20705;SDS011;10514;49.468;11.044;2023-10-09T13:24:37;13.77;;;3.40;;
20705;SDS011;10514;49.468;11.044;2023-10-09T13:27:04;11.50;;;3.10;;
20705;SDS011;10514;49.468;11.044;2023-10-09T13:29:29;12.35;;;3.35;;
20705;SDS011;10514;49.468;11.044;2023-10-09T13:31:58;14.15;;;4.15;;
20705;SDS011;10514;49.468;11.044;2023-10-09T13:34:27;13.55;;;3.53;;
20705;SDS011;10514;49.468;11.044;2023-10-09T13:36:53;10.45;;;3.42;;
20705;SDS011;10514;49.468;11.044;2023-10-09T13:39:20;12.10;;;3.55;;
20705;SDS011;10514;49.468;11.044;2023-10-09T13:41:55;12.52;;;3.33;;
20705;SDS011;10514;49.468;11.044;2023-10-09T13:44:23;9.52;;;3.22;;
20705;SDS011;10514;49.468;11.044;2023-10-09T13:46:55;14.80;;;3.53;;
20705;SDS011;10514;49.468;11.044;2023-10-09T13:49:31;13.23;;;3.40;;
20705;SDS011;10514;49.468;11.044;2023-10-09T13:51:57;9.65;;;3.63;;
20705;SDS011;10514;49.468;11.044;2023-10-09T13:54:25;10.68;;;3.03;;
20705;SDS011;10514;49.468;11.044;2023-10-09T13:57:04;11.27;;;3.27;;
20705;SDS011;10514;49.468;11.044;2023-10-09T13:59:34;13.30;;;3.45;;
20705;SDS011;10514;49.468;11.044;2023-10-09T14:02:00;10.67;;;3.10;;
20705;SDS011;10514;49.468;11.044;2023-10-09T14:04:27;10.80;;;3.55;;
20705;SDS011;10514;49.468;11.044;2023-10-09T14:06:53;8.93;;;3.17;;
20705;SDS011;10514;49.468;11.044;2023-10-09T14:09:23;10.88;;;2.80;;
20705;SDS011;10514;49.468;11.044;2023-10-09T14:12:10;10.35;;;3.13;;
20705;SDS011;10514;49.468;11.044;2023-10-09T14:14:39;11.63;;;3.70;;
20705;SDS011;10514;49.468;11.044;2023-10-09T14:17:12;10.32;;;3.38;;
20705;SDS011;10514;49.468;11.044;2023-10-09T14:19:44;11.68;;;4.05;;
20705;SDS011;10514;49.468;11.044;2023-10-09T14:22:13;10.10;;;3.28;;
20705;SDS011;10514;49.468;11.044;2023-10-09T14:24:44;10.23;;;3.58;;
20705;SDS011;10514;49.468;11.044;2023-10-09T14:27:11;9.55;;;3.33;;
20705;SDS011;10514;49.468;11.044;2023-10-09T14:29:43;9.75;;;3.20;;
20705;SDS011;10514;49.468;11.044;2023-10-09T14:32:12;11.90;;;4.38;;
20705;SDS011;10514;49.468;11.044;2023-10-09T14:34:38;10.20;;;4.00;;
20705;SDS011;10514;49.468;11.044;2023-10-09T14:37:11;9.82;;;3.47;;
20705;SDS011;10514;49.468;11.044;2023-10-09T14:39:40;8.00;;;3.22;;
20705;SDS011;10514;49.468;11.044;2023-10-09T14:42:06;10.52;;;3.38;;
20705;SDS011;10514;49.468;11.044;2023-10-09T14:44:34;11.00;;;3.30;;
20705;SDS011;10514;49.468;11.044;2023-10-09T14:47:03;9.32;;;3.70;;
20705;SDS011;10514;49.468;11.044;2023-10-09T14:49:32;8.98;;;3.17;;
20705;SDS011;10514;49.468;11.044;2023-10-09T14:52:02;9.05;;;3.08;;
20705;SDS011;10514;49.468;11.044;2023-10-09T14:54:28;10.00;;;3.30;;
20705;SDS011;10514;49.468;11.044;2023-10-09T14:56:54;6.68;;;3.00;;
20705;SDS011;10514;49.468;11.044;2023-10-09T14:59:19;6.72;;;3.05;;
20705;SDS011;10514;49.468;11.044;2023-10-09T15:01:47;10.15;;;3.33;;
20705;SDS011;10514;49.468;11.044;2023-10-09T15:04:21;9.18;;;3.28;;
20705;SDS011;10514;49.468;11.044;2023-10-09T15:06:50;9.98;;;3.67;;
20705;SDS011;10514;49.468;11.044;2023-10-09T15:09:16;10.95;;;3.70;;
20705;SDS011;10514;49.468;11.044;2023-10-09T15:11:53;9.98;;;3.95;;
20705;SDS011;10514;49.468;11.044;2023-10-09T15:14:19;8.77;;;3.60;;
20705;SDS011;10514;49.468;11.044;2023-10-09T15:16:45;6.75;;;3.05;;
20705;SDS011;10514;49.468;11.044;2023-10-09T15:19:12;8.45;;;3.10;;
20705;SDS011;10514;49.468;11.044;2023-10-09T15:21:38;8.68;;;3.13;;
20705;SDS011;10514;49.468;11.044;2023-10-09T15:24:13;6.45;;;3.10;;
20705;SDS011;10514;49.468;11.044;2023-10-09T15:26:41;8.30;;;3.30;;
20705;SDS011;10514;49.468;11.044;2023-10-09T15:29:07;8.10;;;3.10;;
20705;SDS011;10514;49.468;11.044;2023-10-09T15:31:35;11.07;;;3.63;;
20705;SDS011;10514;49.468;11.044;2023-10-09T15:34:01;6.55;;;2.97;;
20705;SDS011;10514;49.468;11.044;2023-10-09T15:36:27;8.35;;;3.20;;
20705;SDS011;10514;49.468;11.044;2023-10-09T15:38:57;9.57;;;3.20;;
20705;SDS011;10514;49.468;11.044;2023-10-09T15:41:29;6.95;;;3.08;;
20705;SDS011;10514;49.468;11.044;2023-10-09T15:43:58;6.63;;;3.33;;
20705;SDS011;10514;49.468;11.044;2023-10-09T15:46:24;7.45;;;3.25;;
20705;SDS011;10514;49.468;11.044;2023-10-09T15:48:50;7.18;;;2.95;;